createdAt,value
2022-08-03T00:02:27.400Z,19.70
2022-08-03T00:05:00.170Z,19.73
2022-08-03T00:07:33.146Z,19.71
2022-08-03T00:10:06.564Z,19.68
2022-08-03T00:12:40.013Z,19.69
2022-08-03T00:15:16.396Z,19.73
2022-08-03T00:17:52.472Z,19.73
2022-08-03T00:20:25.433Z,19.71
2022-08-03T00:22:58.280Z,19.66
2022-08-03T00:25:31.465Z,19.59
2022-08-03T00:28:08.120Z,19.48
2022-08-03T00:30:41.481Z,19.48
2022-08-03T00:33:14.836Z,19.42
2022-08-03T00:35:50.755Z,19.34
2022-08-03T00:38:22.943Z,19.31
2022-08-03T00:40:56.770Z,19.31
2022-08-03T00:43:29.604Z,19.32
2022-08-03T00:46:02.405Z,19.36
2022-08-03T00:48:35.556Z,19.35
2022-08-03T00:51:08.747Z,19.31
2022-08-03T00:53:42.218Z,19.31
2022-08-03T00:56:18.954Z,19.29
2022-08-03T00:58:52.051Z,19.30
2022-08-03T01:01:25.103Z,19.26
2022-08-03T01:03:57.870Z,19.25
2022-08-03T01:06:41.274Z,19.24
2022-08-03T01:09:51.083Z,19.22
2022-08-03T01:12:44.161Z,19.19
2022-08-03T01:15:24.428Z,19.16
2022-08-03T01:18:05.022Z,19.15
2022-08-03T01:20:42.012Z,19.11
2022-08-03T01:24:02.101Z,19.10
2022-08-03T01:26:51.368Z,19.05
2022-08-03T01:29:54.666Z,18.98
2022-08-03T01:33:03.059Z,18.96
2022-08-03T01:35:48.853Z,18.99
2022-08-03T01:38:32.624Z,18.96
2022-08-03T01:41:12.400Z,18.91
2022-08-03T01:44:26.463Z,18.81
2022-08-03T01:46:24.337Z,18.74
2022-08-03T01:48:58.019Z,18.73
2022-08-03T01:51:56.607Z,18.74
2022-08-03T01:54:07.347Z,18.76
2022-08-03T01:56:43.255Z,18.72
2022-08-03T01:59:17.534Z,18.70
2022-08-03T02:02:32.023Z,18.69
2022-08-03T02:04:27.063Z,18.68
2022-08-03T02:07:03.354Z,18.67
2022-08-03T02:09:38.752Z,18.67
2022-08-03T02:12:12.612Z,18.67
2022-08-03T02:14:46.672Z,18.67
2022-08-03T02:17:19.489Z,18.65
2022-08-03T02:19:55.104Z,18.64
2022-08-03T02:22:28.204Z,18.66
2022-08-03T02:25:01.220Z,18.66
2022-08-03T02:27:38.349Z,18.66
2022-08-03T02:30:11.862Z,18.66
2022-08-03T02:32:47.919Z,18.70
2022-08-03T02:35:22.532Z,18.73
2022-08-03T02:37:59.836Z,18.73
2022-08-03T02:40:34.275Z,18.70
2022-08-03T02:43:09.371Z,18.70
2022-08-03T02:45:45.685Z,18.67
2022-08-03T02:48:25.897Z,18.67
2022-08-03T02:51:00.720Z,18.62
2022-08-03T02:53:34.587Z,18.55
2022-08-03T02:56:08.259Z,18.50
2022-08-03T02:58:43.985Z,18.52
2022-08-03T03:01:17.369Z,18.54
2022-08-03T03:03:52.064Z,18.55
2022-08-03T03:06:27.394Z,18.56
2022-08-03T03:09:02.265Z,18.60
2022-08-03T03:11:35.580Z,18.62
2022-08-03T03:14:10.815Z,18.69
2022-08-03T03:16:44.688Z,18.74
2022-08-03T03:19:19.742Z,18.82
2022-08-03T03:21:53.108Z,18.87
2022-08-03T03:24:26.217Z,18.88
2022-08-03T03:27:00.571Z,18.91
2022-08-03T03:29:36.522Z,18.95
2022-08-03T03:32:09.811Z,19.01
2022-08-03T03:34:44.299Z,19.05
2022-08-03T03:37:17.315Z,19.12
2022-08-03T03:39:50.881Z,19.16
2022-08-03T03:42:24.072Z,19.15
2022-08-03T03:44:57.039Z,19.19
2022-08-03T03:47:32.712Z,19.23
2022-08-03T03:50:11.206Z,19.26
2022-08-03T03:52:44.389Z,19.26
2022-08-03T03:55:19.973Z,19.29
2022-08-03T03:57:56.275Z,19.34
2022-08-03T04:00:29.031Z,19.48
2022-08-03T04:03:02.121Z,19.60
2022-08-03T04:05:52.587Z,19.73
2022-08-03T04:08:43.967Z,19.93
2022-08-03T04:11:30.096Z,20.16
2022-08-03T04:14:18.535Z,20.45
2022-08-03T04:17:01.171Z,20.65
2022-08-03T04:19:43.901Z,20.83
2022-08-03T04:22:20.987Z,20.90
2022-08-03T04:24:58.461Z,20.94
2022-08-03T04:27:35.314Z,20.96
2022-08-03T04:30:10.480Z,20.95
2022-08-03T04:32:46.039Z,20.95
2022-08-03T04:35:19.991Z,20.94
2022-08-03T04:37:54.504Z,20.94
2022-08-03T04:40:39.796Z,20.97
2022-08-03T04:43:14.289Z,21.00
2022-08-03T04:45:52.818Z,20.99
2022-08-03T04:48:25.909Z,20.98
2022-08-03T04:51:00.744Z,21.05
2022-08-03T04:53:33.880Z,21.13
2022-08-03T04:56:07.953Z,21.19
2022-08-03T04:58:40.781Z,21.24
2022-08-03T05:01:13.608Z,21.32
2022-08-03T05:03:46.585Z,21.40
2022-08-03T05:06:19.463Z,21.49
2022-08-03T05:08:53.929Z,21.60
2022-08-03T05:11:27.004Z,21.72
2022-08-03T05:13:59.865Z,21.80
2022-08-03T05:16:33.207Z,21.81
2022-08-03T05:19:06.074Z,21.80
2022-08-03T05:21:41.705Z,21.84
2022-08-03T05:24:14.596Z,21.91
2022-08-03T05:26:48.988Z,21.93
2022-08-03T05:29:21.827Z,21.97
2022-08-03T05:31:54.789Z,21.97
2022-08-03T05:34:27.777Z,22.00
2022-08-03T05:37:00.608Z,22.15
2022-08-03T05:39:33.408Z,22.15
2022-08-03T05:42:06.432Z,22.17
2022-08-03T05:44:39.368Z,22.28
2022-08-03T05:47:12.331Z,22.28
2022-08-03T05:49:45.303Z,22.33
2022-08-03T05:52:18.920Z,22.39
2022-08-03T05:54:56.187Z,22.49
2022-08-03T05:57:27.274Z,22.49
2022-08-03T06:00:00.317Z,22.50
2022-08-03T06:02:35.358Z,22.58
2022-08-03T06:05:09.273Z,22.67
2022-08-03T06:07:43.047Z,22.86
2022-08-03T06:10:37.095Z,22.86
2022-08-03T06:12:51.501Z,22.94
2022-08-03T06:15:25.990Z,23.04
2022-08-03T06:18:01.852Z,23.12
2022-08-03T06:20:33.369Z,23.19
2022-08-03T06:23:06.222Z,23.18
2022-08-03T06:25:39.376Z,23.24
2022-08-03T06:28:35.171Z,23.29
2022-08-03T06:30:48.641Z,23.34
2022-08-03T06:33:21.732Z,23.39
2022-08-03T06:35:54.966Z,23.45
2022-08-03T06:38:27.794Z,23.49
2022-08-03T06:41:00.495Z,23.55
2022-08-03T06:43:35.898Z,23.59
2022-08-03T06:46:08.879Z,23.65
2022-08-03T06:48:41.774Z,23.73
2022-08-03T06:51:15.364Z,23.76
2022-08-03T06:53:48.321Z,23.81
2022-08-03T06:56:21.313Z,23.87
2022-08-03T06:58:54.196Z,23.90
2022-08-03T07:01:27.072Z,23.95
2022-08-03T07:04:00.926Z,24.01
2022-08-03T07:06:32.950Z,24.06
2022-08-03T07:09:05.885Z,24.13
2022-08-03T07:11:38.817Z,24.23
2022-08-03T07:14:12.154Z,24.30
2022-08-03T07:16:44.944Z,24.37
2022-08-03T07:19:17.981Z,24.40
2022-08-03T07:21:50.807Z,24.44
2022-08-03T07:24:25.415Z,24.50
2022-08-03T07:26:59.838Z,24.55
2022-08-03T07:29:34.812Z,24.59
2022-08-03T07:32:07.958Z,24.67
2022-08-03T07:34:41.351Z,24.76
2022-08-03T07:37:14.138Z,24.80
2022-08-03T07:39:46.918Z,24.87
2022-08-03T07:42:19.864Z,24.95
2022-08-03T07:44:52.804Z,24.99
2022-08-03T07:47:35.693Z,25.05
2022-08-03T07:50:03.678Z,25.11
2022-08-03T07:52:50.031Z,25.16
2022-08-03T07:55:25.773Z,25.19
2022-08-03T07:58:14.746Z,25.24
2022-08-03T08:00:47.928Z,25.29
2022-08-03T08:03:22.147Z,25.31
2022-08-03T08:05:55.515Z,25.37
2022-08-03T08:08:28.530Z,25.46
2022-08-03T08:11:01.416Z,25.54
2022-08-03T08:13:34.966Z,25.60
2022-08-03T08:16:08.432Z,25.60
2022-08-03T08:18:41.573Z,25.63
2022-08-03T08:21:14.581Z,25.70
2022-08-03T08:23:55.602Z,25.81
2022-08-03T08:26:21.915Z,25.91
2022-08-03T08:28:55.095Z,25.93
2022-08-03T08:31:28.306Z,25.98
2022-08-03T08:34:04.625Z,26.05
2022-08-03T08:36:38.444Z,26.10
2022-08-03T08:39:12.428Z,26.09
2022-08-03T08:41:49.614Z,26.10
2022-08-03T08:44:21.772Z,26.13
2022-08-03T08:46:56.101Z,26.17
2022-08-03T08:49:29.622Z,26.16
2022-08-03T08:52:04.408Z,26.17
2022-08-03T08:54:41.802Z,26.18
2022-08-03T08:57:33.624Z,26.21
2022-08-03T08:59:52.378Z,26.28
2022-08-03T09:02:26.513Z,26.33
2022-08-03T09:05:04.029Z,26.43
2022-08-03T09:07:35.514Z,26.52
2022-08-03T09:10:13.296Z,26.63
2022-08-03T09:12:48.381Z,26.73
2022-08-03T09:15:27.397Z,26.76
2022-08-03T09:18:02.922Z,26.77
2022-08-03T09:20:37.512Z,26.85
2022-08-03T09:23:51.882Z,26.89
2022-08-03T09:25:46.796Z,26.90
2022-08-03T09:28:57.903Z,26.93
2022-08-03T09:31:02.361Z,26.94
2022-08-03T09:33:36.102Z,26.97
2022-08-03T09:36:09.435Z,27.00
2022-08-03T09:38:42.299Z,27.03
2022-08-03T09:41:20.140Z,27.07
2022-08-03T09:43:54.986Z,27.17
2022-08-03T09:46:29.476Z,27.28
2022-08-03T09:49:15.040Z,27.37
2022-08-03T09:52:31.329Z,27.43
2022-08-03T09:54:34.438Z,27.53
2022-08-03T09:57:07.583Z,27.69
2022-08-03T09:59:41.628Z,27.90
2022-08-03T10:02:29.565Z,28.01
2022-08-03T10:05:02.520Z,28.03
2022-08-03T10:07:45.823Z,28.07
2022-08-03T10:10:29.080Z,28.11
2022-08-03T10:12:54.489Z,28.07
2022-08-03T10:16:23.840Z,27.99
2022-08-03T10:18:03.095Z,27.92
2022-08-03T10:20:43.258Z,27.92
2022-08-03T10:23:18.439Z,27.96
2022-08-03T10:25:55.323Z,28.02
2022-08-03T10:28:29.614Z,28.03
2022-08-03T10:31:02.817Z,28.00
2022-08-03T10:33:51.416Z,27.95
2022-08-03T10:36:16.603Z,27.92
2022-08-03T10:38:56.759Z,27.89
2022-08-03T10:41:33.481Z,27.88
2022-08-03T10:44:14.556Z,27.95
2022-08-03T10:46:50.647Z,28.07
2022-08-03T10:49:34.301Z,28.23
2022-08-03T10:51:58.896Z,28.34
2022-08-03T10:55:03.332Z,28.45
2022-08-03T10:57:58.902Z,28.58
2022-08-03T11:00:35.032Z,28.72
2022-08-03T11:03:11.727Z,28.74
2022-08-03T11:05:48.455Z,28.72
2022-08-03T11:08:31.773Z,28.71
2022-08-03T11:11:25.171Z,28.65
2022-08-03T11:14:23.018Z,28.64
2022-08-03T11:17:14.111Z,28.70
2022-08-03T11:19:57.432Z,28.73
2022-08-03T11:22:28.498Z,28.68
2022-08-03T11:25:01.980Z,28.59
2022-08-03T11:27:36.526Z,28.60
2022-08-03T11:30:28.617Z,28.71
2022-08-03T11:33:02.232Z,28.84
2022-08-03T11:35:36.948Z,28.96
2022-08-03T11:38:11.081Z,29.07
2022-08-03T11:40:48.044Z,29.20
2022-08-03T11:43:39.502Z,29.27
2022-08-03T11:46:16.427Z,29.29
2022-08-03T11:48:52.502Z,29.30
2022-08-03T11:51:28.209Z,29.32
2022-08-03T11:54:07.487Z,29.37
2022-08-03T11:56:50.024Z,29.43
2022-08-03T11:59:35.058Z,29.39
2022-08-03T12:02:16.717Z,29.28
2022-08-03T12:05:01.704Z,29.11
2022-08-03T12:08:03.273Z,28.97
2022-08-03T12:10:15.842Z,28.81
2022-08-03T12:12:49.410Z,28.60
2022-08-03T12:15:33.959Z,28.42
2022-08-03T12:18:18.648Z,28.28
2022-08-03T12:20:54.598Z,28.15
2022-08-03T12:23:28.988Z,28.06
2022-08-03T12:26:11.239Z,27.99
2022-08-03T12:28:51.292Z,27.94
2022-08-03T12:31:25.113Z,27.91
2022-08-03T12:34:04.314Z,27.88
2022-08-03T12:36:39.547Z,27.85
2022-08-03T12:39:12.575Z,27.83
2022-08-03T12:41:45.394Z,27.80
2022-08-03T12:44:18.305Z,27.80
2022-08-03T12:46:55.813Z,27.80
2022-08-03T12:49:30.432Z,27.81
2022-08-03T12:52:07.406Z,27.85
2022-08-03T12:54:39.264Z,27.86
2022-08-03T12:57:15.997Z,27.86
2022-08-03T12:59:53.031Z,27.86
2022-08-03T13:02:28.033Z,27.83
2022-08-03T13:05:00.988Z,27.79
2022-08-03T13:07:46.305Z,27.72
2022-08-03T13:10:35.432Z,27.65
2022-08-03T13:13:09.131Z,27.58
2022-08-03T13:15:47.813Z,27.51
2022-08-03T13:18:17.270Z,27.44
2022-08-03T13:20:50.660Z,27.38
2022-08-03T13:23:23.776Z,27.32
2022-08-03T13:25:56.650Z,27.25
2022-08-03T13:28:29.503Z,27.20
2022-08-03T13:31:02.787Z,27.19
2022-08-03T13:33:39.314Z,27.16
2022-08-03T13:36:12.244Z,27.13
2022-08-03T13:38:45.491Z,27.13
2022-08-03T13:41:18.637Z,27.12
2022-08-03T13:44:12.038Z,27.11
2022-08-03T13:46:28.098Z,27.11
2022-08-03T13:49:01.019Z,27.10
2022-08-03T13:51:34.540Z,27.10
2022-08-03T13:54:07.637Z,27.10
2022-08-03T13:56:40.791Z,27.10
2022-08-03T13:59:13.811Z,27.08
2022-08-03T14:01:55.255Z,26.97
2022-08-03T14:04:22.785Z,26.81
2022-08-03T14:06:55.775Z,26.60
2022-08-03T14:09:29.480Z,26.43
2022-08-03T14:12:08.378Z,26.22
2022-08-03T14:14:37.918Z,26.04
2022-08-03T14:17:10.837Z,25.91
2022-08-03T14:19:53.218Z,25.76
2022-08-03T14:22:19.759Z,25.63
2022-08-03T14:24:52.603Z,25.51
2022-08-03T14:27:26.054Z,25.46
2022-08-03T14:30:00.353Z,25.39
2022-08-03T14:32:33.610Z,25.35
2022-08-03T14:35:07.335Z,25.35
2022-08-03T14:37:40.618Z,25.36
2022-08-03T14:40:13.552Z,25.39
2022-08-03T14:42:46.759Z,25.39
2022-08-03T14:45:20.757Z,25.39
2022-08-03T14:50:24.947Z,25.36
2022-08-03T14:50:42.910Z,25.29
2022-08-03T14:53:06.750Z,25.20
2022-08-03T14:55:50.929Z,25.08
2022-08-03T14:58:21.173Z,25.01
2022-08-03T15:00:49.593Z,24.99
2022-08-03T15:03:25.150Z,24.95
2022-08-03T15:05:59.198Z,24.88
2022-08-03T15:08:33.072Z,24.77
2022-08-03T15:11:06.310Z,24.66
2022-08-03T15:13:39.696Z,24.59
2022-08-03T15:16:12.485Z,24.50
2022-08-03T15:18:45.410Z,24.38
2022-08-03T15:21:46.609Z,24.26
2022-08-03T15:23:53.116Z,24.20
2022-08-03T15:26:30.954Z,24.12
2022-08-03T15:29:01.428Z,24.03
2022-08-03T15:31:34.723Z,23.97
2022-08-03T15:34:07.602Z,23.84
2022-08-03T15:36:40.453Z,23.73
2022-08-03T15:39:13.496Z,23.70
2022-08-03T15:41:46.416Z,23.68
2022-08-03T15:44:22.838Z,23.66
2022-08-03T15:46:55.873Z,23.63
2022-08-03T15:49:28.824Z,23.61
2022-08-03T15:52:01.764Z,23.58
2022-08-03T15:54:34.855Z,23.56
2022-08-03T15:57:08.344Z,23.53
2022-08-03T15:59:41.373Z,23.49
2022-08-03T16:02:14.709Z,23.45
2022-08-03T16:04:47.993Z,23.45
2022-08-03T16:07:22.806Z,23.63
2022-08-03T16:09:56.123Z,23.82
2022-08-03T16:12:29.297Z,23.88
2022-08-03T16:15:02.525Z,23.90
2022-08-03T16:17:35.927Z,23.90
2022-08-03T16:20:29.077Z,23.87
2022-08-03T16:22:50.268Z,23.84
2022-08-03T16:25:23.087Z,23.78
2022-08-03T16:28:07.308Z,23.70
2022-08-03T16:30:30.899Z,23.62
2022-08-03T16:33:05.494Z,23.58
2022-08-03T16:35:38.826Z,23.52
2022-08-03T16:38:16.543Z,23.47
2022-08-03T16:40:47.363Z,23.44
2022-08-03T16:43:22.692Z,23.41
2022-08-03T16:45:55.645Z,23.37
2022-08-03T16:48:28.485Z,23.30
2022-08-03T16:51:01.393Z,23.22
2022-08-03T16:54:05.632Z,23.16
2022-08-03T16:56:10.567Z,23.13
2022-08-03T16:58:44.379Z,23.10
2022-08-03T17:01:21.805Z,23.09
2022-08-03T17:04:02.411Z,23.04
2022-08-03T17:06:33.877Z,23.01
2022-08-03T17:09:10.135Z,23.01
2022-08-03T17:11:47.708Z,23.02
2022-08-03T17:14:28.565Z,23.01
2022-08-03T17:17:06.786Z,23.01
2022-08-03T17:19:42.155Z,22.98
2022-08-03T17:22:21.893Z,22.90
2022-08-03T17:24:55.993Z,22.82
2022-08-03T17:28:49.513Z,22.79
2022-08-03T17:30:09.720Z,22.75
2022-08-03T17:32:56.977Z,22.71
2022-08-03T17:35:21.478Z,22.59
2022-08-03T17:38:03.275Z,22.59
2022-08-03T17:40:29.490Z,22.53
2022-08-03T17:44:16.654Z,22.53
2022-08-03T17:45:52.330Z,22.48
2022-08-03T17:48:18.449Z,22.48
2022-08-03T17:50:55.189Z,22.45
2022-08-03T17:53:33.229Z,22.45
2022-08-03T17:56:42.414Z,22.44
2022-08-03T17:59:13.696Z,22.42
2022-08-03T18:02:29.581Z,22.39
2022-08-03T18:05:16.499Z,22.35
2022-08-03T18:08:00.884Z,22.32
2022-08-03T18:10:29.252Z,22.28
2022-08-03T18:13:13.870Z,22.23
2022-08-03T18:16:02.867Z,22.22
2022-08-03T18:18:43.029Z,22.22
2022-08-03T18:21:16.946Z,22.20
2022-08-03T18:23:52.815Z,22.17
2022-08-03T18:26:26.710Z,22.18
2022-08-03T18:29:00.249Z,22.14
2022-08-03T18:32:02.613Z,22.12
2022-08-03T18:34:19.854Z,22.12
2022-08-03T18:36:48.818Z,22.10
2022-08-03T18:39:21.919Z,22.10
2022-08-03T18:41:54.905Z,22.08
2022-08-03T18:44:52.602Z,22.08
2022-08-03T18:47:23.029Z,22.08
2022-08-03T18:50:12.516Z,22.04
2022-08-03T18:52:57.788Z,22.04
2022-08-03T18:55:36.484Z,22.02
2022-08-03T18:58:19.412Z,21.98
2022-08-03T19:02:00.387Z,21.98
2022-08-03T19:03:56.143Z,21.94
2022-08-03T19:06:31.511Z,21.88
2022-08-03T19:09:13.310Z,21.88
2022-08-03T19:12:14.151Z,21.85
2022-08-03T19:14:31.438Z,21.82
2022-08-03T19:19:47.711Z,21.76
2022-08-03T19:22:22.628Z,21.73
2022-08-03T19:24:58.087Z,21.68
2022-08-03T19:27:34.612Z,21.65
2022-08-03T19:30:21.973Z,21.61
2022-08-03T19:32:48.266Z,21.59
2022-08-03T19:35:51.952Z,21.57
2022-08-03T19:37:55.509Z,21.54
2022-08-03T19:40:33.260Z,21.51
2022-08-03T19:43:11.045Z,21.48
2022-08-03T19:46:04.418Z,21.45
2022-08-03T19:48:24.129Z,21.42
2022-08-03T19:51:00.059Z,21.39
2022-08-03T19:53:37.235Z,21.37
2022-08-03T19:56:12.662Z,21.36
2022-08-03T19:58:45.725Z,21.36
2022-08-03T20:01:21.657Z,21.36
2022-08-03T20:03:55.186Z,21.35
2022-08-03T20:06:28.547Z,21.34
2022-08-03T20:09:01.890Z,21.31
2022-08-03T20:11:45.113Z,21.28
2022-08-03T20:14:13.318Z,21.23
2022-08-03T20:16:49.343Z,21.19
2022-08-03T20:19:23.057Z,21.17
2022-08-03T20:21:56.315Z,21.15
2022-08-03T20:24:35.267Z,21.14
2022-08-03T20:27:10.195Z,21.12
2022-08-03T20:30:07.670Z,21.10
2022-08-03T20:32:24.729Z,21.08
2022-08-03T20:34:58.648Z,21.04
2022-08-03T20:37:31.684Z,21.01
2022-08-03T20:40:07.744Z,20.98
2022-08-03T20:42:40.739Z,20.93
2022-08-03T20:46:00.172Z,20.90
2022-08-03T20:47:50.613Z,20.87
2022-08-03T20:50:24.092Z,20.83
2022-08-03T20:52:58.909Z,20.82
2022-08-03T20:55:53.772Z,20.82
2022-08-03T20:58:07.894Z,20.80
2022-08-03T21:00:42.577Z,20.75
2022-08-03T21:03:16.390Z,20.75
2022-08-03T21:05:53.622Z,20.73
2022-08-03T21:08:27.907Z,20.71
2022-08-03T21:11:01.937Z,20.67
2022-08-03T21:13:01.991Z,21.79
2022-08-03T21:13:59.257Z,20.64
2022-08-03T21:16:34.030Z,20.60
2022-08-03T21:19:06.915Z,20.54
2022-08-03T21:21:41.064Z,20.50
2022-08-03T21:24:13.460Z,20.49
2022-08-03T21:26:48.569Z,20.50
2022-08-03T21:29:22.960Z,20.50
2022-08-03T21:31:56.366Z,20.49
2022-08-03T21:34:29.669Z,20.48
2022-08-03T21:37:02.911Z,20.46
2022-08-03T21:39:37.279Z,20.45
2022-08-03T21:42:11.663Z,20.43
2022-08-03T21:44:44.943Z,20.41
2022-08-03T21:47:18.086Z,20.41
2022-08-03T21:50:07.692Z,20.37
2022-08-03T21:52:29.070Z,20.36
2022-08-03T21:55:05.838Z,20.34
2022-08-03T21:57:42.841Z,20.33
2022-08-03T22:00:21.765Z,20.35
2022-08-03T22:03:00.360Z,20.34
2022-08-03T22:05:43.281Z,20.33
2022-08-03T22:08:10.033Z,20.33
2022-08-03T22:10:45.608Z,20.32
2022-08-03T22:13:43.603Z,20.31
2022-08-03T22:15:56.511Z,20.29
2022-08-03T22:18:29.719Z,20.27
2022-08-03T22:21:03.245Z,20.25
2022-08-03T22:23:41.108Z,20.23
2022-08-03T22:26:18.065Z,20.22
2022-08-03T22:28:52.892Z,20.20
2022-08-03T22:31:30.905Z,20.17
2022-08-03T22:34:01.307Z,20.15
2022-08-03T22:36:34.826Z,20.13
2022-08-03T22:39:07.645Z,20.11
2022-08-03T22:41:40.421Z,20.10
2022-08-03T22:44:15.126Z,20.08
2022-08-03T22:46:48.166Z,20.09
2022-08-03T22:49:22.008Z,20.09
2022-08-03T22:51:55.404Z,20.11
2022-08-03T22:54:28.223Z,20.15
2022-08-03T22:57:01.591Z,20.19
2022-08-03T22:59:42.116Z,20.23
2022-08-03T23:02:21.773Z,20.25
2022-08-03T23:04:58.049Z,20.28
2022-08-03T23:07:34.685Z,20.31
2022-08-03T23:10:14.129Z,20.31
2022-08-03T23:12:50.749Z,20.33
2022-08-03T23:15:26.751Z,20.34
2022-08-03T23:18:00.184Z,20.34
2022-08-03T23:20:33.688Z,20.33
2022-08-03T23:23:06.631Z,20.34
2022-08-03T23:25:41.594Z,20.33
2022-08-03T23:28:19.313Z,20.32
2022-08-03T23:30:52.973Z,20.30
2022-08-03T23:33:25.842Z,20.29
2022-08-03T23:36:27.717Z,20.29
2022-08-03T23:38:38.368Z,20.30
2022-08-03T23:41:11.856Z,20.32
2022-08-03T23:43:51.817Z,20.34
2022-08-03T23:46:21.115Z,20.35
2022-08-03T23:48:56.533Z,20.34
2022-08-03T23:51:45.575Z,20.33
2022-08-03T23:54:29.186Z,20.32
2022-08-03T23:57:06.596Z,20.33
